Monday, December 18, 2017, 3:32 PM EST
Back to Local

KBGM, Binghamton Regional Airport

Location: Johnson City, NY, United States Lat: 42.2
Local Time: 3:32 PM EST (20:32 GMT) Lon: -75.983
Time Zone: US/Eastern Elev: 1637 ft

Show me the last for .
Show Decoded

2017-12-18 14:53 METAR KBGM 181953Z 22008KT 9SM FEW055 OVC080 02/M01 A2987 RMK AO2 SLP132
                 T00221011 =
2017-12-18 13:53 METAR KBGM 181853Z 22006KT 8SM BKN048 OVC075 02/M01 A2988 RMK AO2 SLP134
                 T00221011 =
2017-12-18 12:53 METAR KBGM 181753Z 22006KT 8SM BKN050 OVC060 02/M01 A2991 RMK AO2 SLP144 60000
                 T00221011 10022 21006 58020 =
2017-12-18 11:53 METAR KBGM 181653Z 22008KT 7SM BKN031 OVC041 02/M02 A2993 RMK AO2 SLP154
                 T00171017 =
2017-12-18 10:53 METAR KBGM 181553Z 21005KT 6SM HZ FEW019 OVC035 01/M02 A2997 RMK AO2 SLP167
                 T00111017 =
2017-12-18 10:40 METAR KBGM 181540Z 21006KT 6SM BR SCT017 BKN022 OVC035 01/M02 A2997 RMK AO2
                 T00061017 =
2017-12-18 10:30 METAR KBGM 181530Z 21007KT 5SM HZ SCT014 SCT022 OVC034 01/M02 A2998 RMK AO2
                 T00061022 =
2017-12-18 09:53 METAR KBGM 181453Z 22005KT 6SM HZ OVC014 01/M02 A2999 RMK AO2 SLP174 60000
                 T00061022 56004 =
2017-12-18 09:36 METAR KBGM 181436Z 22007KT 5SM BR OVC014 00/M02 A2999 RMK AO2 T00001022 =
2017-12-18 08:53 METAR KBGM 181353Z 22008KT 5SM BR OVC016 00/M02 A2999 RMK AO2 SLP176 T00001022 =
2017-12-18 07:53 METAR KBGM 181253Z 20006KT 4SM BR OVC017 00/M02 A2998 RMK AO2 SNE07 SLP174 P0000
                 T00001017 =
2017-12-18 07:17 METAR KBGM 181217Z 20009KT 4SM BR BKN020 OVC035 M01/M02 A2999 RMK AO2 SNE07
                 P0000 T10061017 =
2017-12-18 07:10 METAR KBGM 181210Z 20006KT 4SM BR SCT020 BKN035 OVC047 M01/M02 A2999 RMK AO2
                 SNE07 P0000 T10061017 =
2017-12-18 06:53 METAR KBGM 181153Z AUTO 20008KT 2 1/2SM -SN BR SCT020 BKN031 OVC042 M01/M02
                 A3000 RMK AO2 UPB08E17B44E48SNB33E44B48 SLP180 P0001 60001 70001 T10061017 11006
                 21033 56001 =
2017-12-18 06:51 METAR KBGM 181151Z AUTO 20008KT 2 1/2SM -SN BR SCT020 BKN031 OVC042 M01/M02
                 A3000 RMK AO2 UPB08E17B44E48SNB33E44B48 P0001 =
2017-12-18 06:20 METAR KBGM 181120Z AUTO 20007KT 5SM BR BKN024 OVC031 M01/M02 A3000 RMK AO2
                 UPB08E17 P0000 T10061022 =
2017-12-18 06:03 METAR KBGM 181103Z AUTO 19005KT 7SM OVC030 M01/M03 A3000 RMK AO2 T10061028 =
2017-12-18 05:53 METAR KBGM 181053Z AUTO 19005KT 8SM BKN028 OVC033 M01/M03 A3000 RMK AO2 SLP180
                 T10061028 =
2017-12-18 05:03 METAR KBGM 181003Z AUTO 20006KT 9SM BKN029 OVC050 M01/M03 A2999 RMK AO2
                 T10061033 =
2017-12-18 04:53 METAR KBGM 180953Z AUTO 20006KT 9SM SCT028 OVC050 M01/M03 A3000 RMK AO2 SLP178
                 T10061033 =
2017-12-18 04:19 METAR KBGM 180919Z AUTO 20006KT 9SM SCT016 BKN055 OVC070 M01/M04 A3000 RMK AO2
                 T10111039 =
2017-12-18 03:53 METAR KBGM 180853Z AUTO 20007KT 9SM BKN016 OVC060 M01/M04 A3000 RMK AO2 SLP181
                 T10111039 58010 =
2017-12-18 03:40 METAR KBGM 180840Z AUTO 20007KT 10SM BKN016 OVC060 M01/M04 A3001 RMK AO2
                 T10111039 =
2017-12-18 02:53 METAR KBGM 180753Z AUTO 19005KT 10SM BKN070 OVC080 M02/M04 A3003 RMK AO2 SLP190
                 T10221044 =
2017-12-18 01:53 METAR KBGM 180653Z AUTO 18003KT 10SM BKN065 OVC090 M03/M06 A3005 RMK AO2 SLP197
                 T10281056 =
2017-12-18 00:53 METAR KBGM 180553Z AUTO 16004KT 10SM OVC095 M03/M06 A3003 RMK AO2 SLP194 60000
                 T10331061 11033 21056 58018 =
2017-12-17 23:53 METAR KBGM 180453Z 16004KT 10SM FEW110 M04/M07 A3005 RMK AO2 SLP200 T10391067
                 410391072 =
2017-12-17 22:53 METAR KBGM 180353Z 16005KT 10SM OVC047 M04/M07 A3008 RMK AO2 SLP209 T10441072 =
2017-12-17 21:53 METAR KBGM 180253Z 12005KT 10SM OVC042 M05/M07 A3009 RMK AO2 SLP214 60000
                 T10501072 58015 =
2017-12-17 20:53 METAR KBGM 180153Z 13004KT 10SM OVC038 M06/M07 A3011 RMK AO2 SNE15 SLP221 P0000
                 T10561072 =
2017-12-17 19:53 METAR KBGM 180053Z 12004KT 3SM -SN BR OVC037 M06/M08 A3013 RMK AO2 SNB01 SLP227
                 P0000 T10561078 =
2017-12-17 18:53 METAR KBGM 172353Z 11004KT 10SM FEW012 BKN060 OVC075 M06/M09 A3013 RMK AO2
                 SLP230 T10561089 11050 21061 58001 =
2017-12-17 18:45 METAR KBGM 172345Z 14004KT 10SM FEW012 BKN070 OVC090 M06/M09 A3014 RMK AO2
                 T10561089 =
2017-12-17 17:53 METAR KBGM 172253Z 00000KT 10SM OVC011 M06/M09 A3014 RMK AO2 SLP233 T10561094 =
2017-12-17 16:53 METAR KBGM 172153Z 00000KT 10SM OVC012 M05/M09 A3014 RMK AO2 SLP232 T10501094 =
2017-12-17 15:53 METAR KBGM 172053Z 15004KT 10SM OVC014 M06/M09 A3014 RMK AO2 SLP232 T10561094
                 56007 =

Support USWX by starting your Amazon purchase here.